sensor_id;sensor_type;location;lat;lon;timestamp;P1;durP1;ratioP1;P2;durP2;ratioP2
31638;SDS011;18248;51.522;7.020;2023-04-03T00:01:01;24.20;;;11.23;;
31638;SDS011;18248;51.522;7.020;2023-04-03T00:04:00;23.65;;;11.15;;
31638;SDS011;18248;51.522;7.020;2023-04-03T00:07:00;20.42;;;10.25;;
31638;SDS011;18248;51.522;7.020;2023-04-03T00:09:59;24.10;;;10.38;;
31638;SDS011;18248;51.522;7.020;2023-04-03T00:12:57;23.65;;;10.48;;
31638;SDS011;18248;51.522;7.020;2023-04-03T00:15:56;31.90;;;14.77;;
31638;SDS011;18248;51.522;7.020;2023-04-03T00:18:54;26.00;;;15.07;;
31638;SDS011;18248;51.522;7.020;2023-04-03T00:21:53;27.13;;;14.05;;
31638;SDS011;18248;51.522;7.020;2023-04-03T00:24:51;28.52;;;13.43;;
31638;SDS011;18248;51.522;7.020;2023-04-03T00:27:50;30.80;;;15.60;;
31638;SDS011;18248;51.522;7.020;2023-04-03T00:30:49;29.05;;;13.13;;
31638;SDS011;18248;51.522;7.020;2023-04-03T00:33:48;22.42;;;11.63;;
31638;SDS011;18248;51.522;7.020;2023-04-03T00:36:46;23.38;;;11.57;;
31638;SDS011;18248;51.522;7.020;2023-04-03T00:39:45;35.03;;;17.52;;
31638;SDS011;18248;51.522;7.020;2023-04-03T00:42:43;40.08;;;19.35;;
31638;SDS011;18248;51.522;7.020;2023-04-03T00:45:46;28.60;;;12.25;;
31638;SDS011;18248;51.522;7.020;2023-04-03T00:48:47;21.75;;;11.30;;
31638;SDS011;18248;51.522;7.020;2023-04-03T00:51:46;27.55;;;13.55;;
31638;SDS011;18248;51.522;7.020;2023-04-03T00:54:45;33.25;;;16.58;;
31638;SDS011;18248;51.522;7.020;2023-04-03T00:57:45;31.77;;;16.83;;
31638;SDS011;18248;51.522;7.020;2023-04-03T01:00:46;29.17;;;14.93;;
31638;SDS011;18248;51.522;7.020;2023-04-03T01:03:49;26.55;;;11.77;;
31638;SDS011;18248;51.522;7.020;2023-04-03T01:06:48;19.08;;;9.07;;
31638;SDS011;18248;51.522;7.020;2023-04-03T01:09:47;20.27;;;9.68;;
31638;SDS011;18248;51.522;7.020;2023-04-03T01:12:49;18.67;;;8.13;;
31638;SDS011;18248;51.522;7.020;2023-04-03T01:15:48;16.25;;;7.07;;
31638;SDS011;18248;51.522;7.020;2023-04-03T01:18:47;15.40;;;7.47;;
31638;SDS011;18248;51.522;7.020;2023-04-03T01:22:01;15.27;;;6.45;;
31638;SDS011;18248;51.522;7.020;2023-04-03T01:25:22;18.50;;;6.72;;
31638;SDS011;18248;51.522;7.020;2023-04-03T01:34:33;8.70;;;4.32;;
31638;SDS011;18248;51.522;7.020;2023-04-03T01:37:32;13.98;;;4.60;;
31638;SDS011;18248;51.522;7.020;2023-04-03T01:40:30;9.93;;;3.90;;
31638;SDS011;18248;51.522;7.020;2023-04-03T01:43:29;10.50;;;3.22;;
31638;SDS011;18248;51.522;7.020;2023-04-03T01:46:27;8.80;;;3.95;;
31638;SDS011;18248;51.522;7.020;2023-04-03T01:49:26;10.60;;;3.63;;
31638;SDS011;18248;51.522;7.020;2023-04-03T01:52:28;8.32;;;2.53;;
31638;SDS011;18248;51.522;7.020;2023-04-03T01:55:26;9.55;;;3.33;;
31638;SDS011;18248;51.522;7.020;2023-04-03T01:58:25;6.60;;;2.90;;
31638;SDS011;18248;51.522;7.020;2023-04-03T02:01:24;10.52;;;3.05;;
31638;SDS011;18248;51.522;7.020;2023-04-03T02:04:23;11.48;;;2.83;;
31638;SDS011;18248;51.522;7.020;2023-04-03T02:07:22;9.15;;;2.53;;
31638;SDS011;18248;51.522;7.020;2023-04-03T02:10:21;13.10;;;3.25;;
31638;SDS011;18248;51.522;7.020;2023-04-03T02:13:19;10.27;;;2.90;;
31638;SDS011;18248;51.522;7.020;2023-04-03T02:16:18;8.20;;;2.47;;
31638;SDS011;18248;51.522;7.020;2023-04-03T02:19:16;11.38;;;2.78;;
31638;SDS011;18248;51.522;7.020;2023-04-03T02:22:15;9.68;;;2.38;;
31638;SDS011;18248;51.522;7.020;2023-04-03T02:25:16;9.18;;;2.67;;
31638;SDS011;18248;51.522;7.020;2023-04-03T02:28:15;10.48;;;2.80;;
31638;SDS011;18248;51.522;7.020;2023-04-03T02:31:14;6.68;;;2.33;;
31638;SDS011;18248;51.522;7.020;2023-04-03T02:34:12;6.60;;;2.60;;
31638;SDS011;18248;51.522;7.020;2023-04-03T02:37:12;11.13;;;2.53;;
31638;SDS011;18248;51.522;7.020;2023-04-03T02:40:12;10.70;;;2.67;;
31638;SDS011;18248;51.522;7.020;2023-04-03T02:43:11;8.13;;;2.38;;
31638;SDS011;18248;51.522;7.020;2023-04-03T02:46:09;9.38;;;2.88;;
31638;SDS011;18248;51.522;7.020;2023-04-03T02:49:08;8.95;;;2.70;;
31638;SDS011;18248;51.522;7.020;2023-04-03T02:52:06;9.77;;;2.80;;
31638;SDS011;18248;51.522;7.020;2023-04-03T02:55:05;10.57;;;2.95;;
31638;SDS011;18248;51.522;7.020;2023-04-03T02:58:04;10.60;;;2.90;;
31638;SDS011;18248;51.522;7.020;2023-04-03T03:01:03;6.55;;;2.50;;
31638;SDS011;18248;51.522;7.020;2023-04-03T03:04:02;11.43;;;2.85;;
31638;SDS011;18248;51.522;7.020;2023-04-03T03:07:01;11.68;;;2.97;;
31638;SDS011;18248;51.522;7.020;2023-04-03T03:10:00;14.40;;;3.25;;
31638;SDS011;18248;51.522;7.020;2023-04-03T03:12:58;7.20;;;2.20;;
31638;SDS011;18248;51.522;7.020;2023-04-03T03:15:59;8.45;;;2.45;;
31638;SDS011;18248;51.522;7.020;2023-04-03T03:18:59;9.70;;;2.70;;
31638;SDS011;18248;51.522;7.020;2023-04-03T03:21:57;7.20;;;2.55;;
31638;SDS011;18248;51.522;7.020;2023-04-03T03:25:01;6.80;;;2.08;;
31638;SDS011;18248;51.522;7.020;2023-04-03T03:28:00;9.20;;;2.20;;
31638;SDS011;18248;51.522;7.020;2023-04-03T03:30:59;9.65;;;2.88;;
31638;SDS011;18248;51.522;7.020;2023-04-03T03:33:59;13.07;;;2.60;;
31638;SDS011;18248;51.522;7.020;2023-04-03T03:36:58;6.88;;;2.17;;
31638;SDS011;18248;51.522;7.020;2023-04-03T03:39:56;12.10;;;2.47;;
31638;SDS011;18248;51.522;7.020;2023-04-03T03:42:55;7.65;;;2.67;;
31638;SDS011;18248;51.522;7.020;2023-04-03T03:45:54;6.45;;;2.17;;
31638;SDS011;18248;51.522;7.020;2023-04-03T03:48:52;9.35;;;2.05;;
31638;SDS011;18248;51.522;7.020;2023-04-03T03:51:52;8.10;;;2.35;;
31638;SDS011;18248;51.522;7.020;2023-04-03T03:54:51;5.47;;;1.92;;
31638;SDS011;18248;51.522;7.020;2023-04-03T03:57:50;9.20;;;2.85;;
31638;SDS011;18248;51.522;7.020;2023-04-03T04:00:48;8.88;;;2.33;;
31638;SDS011;18248;51.522;7.020;2023-04-03T04:03:47;8.70;;;2.33;;
31638;SDS011;18248;51.522;7.020;2023-04-03T04:06:46;5.65;;;2.50;;
31638;SDS011;18248;51.522;7.020;2023-04-03T04:09:44;12.88;;;2.70;;
31638;SDS011;18248;51.522;7.020;2023-04-03T04:12:43;8.27;;;2.25;;
31638;SDS011;18248;51.522;7.020;2023-04-03T04:15:43;6.82;;;1.98;;
31638;SDS011;18248;51.522;7.020;2023-04-03T04:18:41;9.20;;;2.45;;
31638;SDS011;18248;51.522;7.020;2023-04-03T04:21:40;10.70;;;2.67;;
31638;SDS011;18248;51.522;7.020;2023-04-03T04:24:39;7.95;;;2.13;;
31638;SDS011;18248;51.522;7.020;2023-04-03T04:27:38;9.25;;;2.38;;
31638;SDS011;18248;51.522;7.020;2023-04-03T04:30:37;15.40;;;3.00;;
31638;SDS011;18248;51.522;7.020;2023-04-03T04:33:37;10.50;;;2.72;;
31638;SDS011;18248;51.522;7.020;2023-04-03T04:36:36;5.22;;;2.55;;
31638;SDS011;18248;51.522;7.020;2023-04-03T04:39:34;11.27;;;2.55;;
31638;SDS011;18248;51.522;7.020;2023-04-03T04:42:33;10.63;;;2.88;;
31638;SDS011;18248;51.522;7.020;2023-04-03T04:45:32;12.57;;;3.03;;
31638;SDS011;18248;51.522;7.020;2023-04-03T04:48:30;7.05;;;2.33;;
31638;SDS011;18248;51.522;7.020;2023-04-03T04:51:29;8.38;;;2.47;;
31638;SDS011;18248;51.522;7.020;2023-04-03T04:54:28;10.45;;;3.00;;
31638;SDS011;18248;51.522;7.020;2023-04-03T04:57:26;8.23;;;2.95;;
31638;SDS011;18248;51.522;7.020;2023-04-03T05:00:25;21.88;;;3.47;;
31638;SDS011;18248;51.522;7.020;2023-04-03T05:03:23;8.23;;;3.08;;
31638;SDS011;18248;51.522;7.020;2023-04-03T05:06:22;9.45;;;3.17;;
31638;SDS011;18248;51.522;7.020;2023-04-03T05:09:21;11.93;;;3.03;;
31638;SDS011;18248;51.522;7.020;2023-04-03T05:12:20;8.63;;;2.67;;
31638;SDS011;18248;51.522;7.020;2023-04-03T05:15:18;10.63;;;2.72;;
31638;SDS011;18248;51.522;7.020;2023-04-03T05:18:17;12.43;;;2.88;;
31638;SDS011;18248;51.522;7.020;2023-04-03T05:21:16;16.70;;;2.70;;
31638;SDS011;18248;51.522;7.020;2023-04-03T05:24:16;9.23;;;2.63;;
31638;SDS011;18248;51.522;7.020;2023-04-03T05:27:16;7.88;;;2.80;;
31638;SDS011;18248;51.522;7.020;2023-04-03T05:30:14;9.88;;;3.15;;
31638;SDS011;18248;51.522;7.020;2023-04-03T05:33:14;5.90;;;2.35;;
31638;SDS011;18248;51.522;7.020;2023-04-03T05:36:13;9.57;;;2.67;;
31638;SDS011;18248;51.522;7.020;2023-04-03T05:39:12;9.18;;;2.70;;
31638;SDS011;18248;51.522;7.020;2023-04-03T05:42:10;12.02;;;2.97;;
31638;SDS011;18248;51.522;7.020;2023-04-03T05:45:09;11.68;;;2.63;;
31638;SDS011;18248;51.522;7.020;2023-04-03T05:48:08;12.15;;;2.97;;
31638;SDS011;18248;51.522;7.020;2023-04-03T05:51:09;9.60;;;3.47;;
31638;SDS011;18248;51.522;7.020;2023-04-03T05:54:17;15.80;;;3.30;;
31638;SDS011;18248;51.522;7.020;2023-04-03T05:57:21;15.30;;;2.92;;
31638;SDS011;18248;51.522;7.020;2023-04-03T06:00:19;18.08;;;3.45;;
31638;SDS011;18248;51.522;7.020;2023-04-03T06:03:19;9.68;;;2.97;;
31638;SDS011;18248;51.522;7.020;2023-04-03T06:06:19;11.32;;;3.35;;
31638;SDS011;18248;51.522;7.020;2023-04-03T06:09:18;14.23;;;3.17;;
31638;SDS011;18248;51.522;7.020;2023-04-03T06:12:19;11.30;;;2.97;;
31638;SDS011;18248;51.522;7.020;2023-04-03T06:15:17;13.45;;;2.65;;
31638;SDS011;18248;51.522;7.020;2023-04-03T06:18:16;9.70;;;2.60;;
31638;SDS011;18248;51.522;7.020;2023-04-03T06:21:14;13.90;;;2.80;;
31638;SDS011;18248;51.522;7.020;2023-04-03T06:24:14;13.30;;;2.75;;
31638;SDS011;18248;51.522;7.020;2023-04-03T06:27:14;12.85;;;3.28;;
31638;SDS011;18248;51.522;7.020;2023-04-03T06:30:13;12.07;;;3.00;;
31638;SDS011;18248;51.522;7.020;2023-04-03T06:33:12;10.57;;;3.25;;
31638;SDS011;18248;51.522;7.020;2023-04-03T06:36:10;12.55;;;3.25;;
31638;SDS011;18248;51.522;7.020;2023-04-03T06:39:15;16.45;;;4.20;;
31638;SDS011;18248;51.522;7.020;2023-04-03T06:42:15;13.63;;;3.95;;
31638;SDS011;18248;51.522;7.020;2023-04-03T06:45:14;11.52;;;3.92;;
31638;SDS011;18248;51.522;7.020;2023-04-03T06:48:13;17.58;;;3.67;;
31638;SDS011;18248;51.522;7.020;2023-04-03T06:51:16;11.73;;;3.25;;
31638;SDS011;18248;51.522;7.020;2023-04-03T06:54:17;10.35;;;3.47;;
31638;SDS011;18248;51.522;7.020;2023-04-03T06:57:16;9.70;;;2.70;;
31638;SDS011;18248;51.522;7.020;2023-04-03T07:00:14;9.23;;;3.00;;
31638;SDS011;18248;51.522;7.020;2023-04-03T07:03:14;10.63;;;3.45;;
31638;SDS011;18248;51.522;7.020;2023-04-03T07:06:14;10.15;;;3.20;;
31638;SDS011;18248;51.522;7.020;2023-04-03T07:09:14;12.98;;;3.10;;
31638;SDS011;18248;51.522;7.020;2023-04-03T07:12:13;9.68;;;2.30;;
31638;SDS011;18248;51.522;7.020;2023-04-03T07:15:11;15.18;;;2.85;;
31638;SDS011;18248;51.522;7.020;2023-04-03T07:18:12;13.25;;;3.15;;
31638;SDS011;18248;51.522;7.020;2023-04-03T07:21:12;14.43;;;3.22;;
31638;SDS011;18248;51.522;7.020;2023-04-03T07:24:11;10.80;;;2.70;;
31638;SDS011;18248;51.522;7.020;2023-04-03T07:27:10;12.90;;;3.20;;
31638;SDS011;18248;51.522;7.020;2023-04-03T07:30:11;12.23;;;2.70;;
31638;SDS011;18248;51.522;7.020;2023-04-03T07:33:12;7.53;;;2.92;;
31638;SDS011;18248;51.522;7.020;2023-04-03T07:36:16;14.70;;;3.38;;
31638;SDS011;18248;51.522;7.020;2023-04-03T07:39:16;18.67;;;3.35;;
31638;SDS011;18248;51.522;7.020;2023-04-03T07:42:15;11.82;;;3.63;;
31638;SDS011;18248;51.522;7.020;2023-04-03T07:45:14;11.32;;;2.72;;
31638;SDS011;18248;51.522;7.020;2023-04-03T07:48:13;12.13;;;2.72;;
31638;SDS011;18248;51.522;7.020;2023-04-03T07:51:11;8.73;;;2.75;;
31638;SDS011;18248;51.522;7.020;2023-04-03T07:54:10;13.68;;;3.00;;
31638;SDS011;18248;51.522;7.020;2023-04-03T07:57:09;13.43;;;3.17;;
31638;SDS011;18248;51.522;7.020;2023-04-03T08:00:08;8.77;;;2.60;;
31638;SDS011;18248;51.522;7.020;2023-04-03T08:03:09;12.00;;;2.88;;
31638;SDS011;18248;51.522;7.020;2023-04-03T08:06:08;10.45;;;2.72;;
31638;SDS011;18248;51.522;7.020;2023-04-03T08:09:07;6.65;;;2.40;;
31638;SDS011;18248;51.522;7.020;2023-04-03T08:12:06;11.20;;;3.00;;
31638;SDS011;18248;51.522;7.020;2023-04-03T08:15:04;11.88;;;2.53;;
31638;SDS011;18248;51.522;7.020;2023-04-03T08:18:04;8.85;;;3.03;;
31638;SDS011;18248;51.522;7.020;2023-04-03T08:21:10;8.70;;;2.55;;
31638;SDS011;18248;51.522;7.020;2023-04-03T08:24:09;9.18;;;2.97;;
31638;SDS011;18248;51.522;7.020;2023-04-03T08:27:08;11.95;;;3.15;;
31638;SDS011;18248;51.522;7.020;2023-04-03T08:30:07;10.98;;;2.78;;
31638;SDS011;18248;51.522;7.020;2023-04-03T08:33:06;10.15;;;2.63;;
31638;SDS011;18248;51.522;7.020;2023-04-03T08:36:16;14.07;;;2.95;;
31638;SDS011;18248;51.522;7.020;2023-04-03T08:39:17;10.68;;;2.88;;
31638;SDS011;18248;51.522;7.020;2023-04-03T08:43:02;7.10;;;2.60;;
31638;SDS011;18248;51.522;7.020;2023-04-03T08:46:02;9.60;;;2.30;;
31638;SDS011;18248;51.522;7.020;2023-04-03T08:49:01;12.65;;;2.90;;
31638;SDS011;18248;51.522;7.020;2023-04-03T08:52:05;10.50;;;2.38;;
31638;SDS011;18248;51.522;7.020;2023-04-03T08:58:45;6.72;;;2.38;;
31638;SDS011;18248;51.522;7.020;2023-04-03T09:01:48;9.85;;;2.00;;
31638;SDS011;18248;51.522;7.020;2023-04-03T09:04:47;6.72;;;1.80;;
31638;SDS011;18248;51.522;7.020;2023-04-03T09:08:31;5.82;;;2.53;;
31638;SDS011;18248;51.522;7.020;2023-04-03T09:18:19;6.93;;;2.00;;
31638;SDS011;18248;51.522;7.020;2023-04-03T09:21:32;7.07;;;1.88;;
31638;SDS011;18248;51.522;7.020;2023-04-03T09:24:35;7.80;;;1.75;;
31638;SDS011;18248;51.522;7.020;2023-04-03T09:27:35;6.13;;;1.77;;
31638;SDS011;18248;51.522;7.020;2023-04-03T09:30:33;6.80;;;1.55;;
31638;SDS011;18248;51.522;7.020;2023-04-03T09:33:32;8.18;;;2.33;;
31638;SDS011;18248;51.522;7.020;2023-04-03T09:36:40;5.95;;;1.23;;
31638;SDS011;18248;51.522;7.020;2023-04-03T09:39:50;4.50;;;1.30;;
31638;SDS011;18248;51.522;7.020;2023-04-03T09:42:52;3.22;;;0.88;;
31638;SDS011;18248;51.522;7.020;2023-04-03T09:45:52;3.72;;;1.38;;
31638;SDS011;18248;51.522;7.020;2023-04-03T09:49:01;10.68;;;1.38;;
31638;SDS011;18248;51.522;7.020;2023-04-03T09:52:17;5.03;;;1.33;;
31638;SDS011;18248;51.522;7.020;2023-04-03T09:55:22;12.95;;;1.40;;
31638;SDS011;18248;51.522;7.020;2023-04-03T09:58:28;8.25;;;1.42;;
31638;SDS011;18248;51.522;7.020;2023-04-03T10:01:41;6.40;;;1.90;;
31638;SDS011;18248;51.522;7.020;2023-04-03T10:04:43;4.03;;;1.08;;
31638;SDS011;18248;51.522;7.020;2023-04-03T10:07:42;4.03;;;1.40;;
31638;SDS011;18248;51.522;7.020;2023-04-03T10:10:41;3.63;;;1.10;;
31638;SDS011;18248;51.522;7.020;2023-04-03T10:13:54;2.45;;;1.15;;
31638;SDS011;18248;51.522;7.020;2023-04-03T10:20:33;9.52;;;1.65;;
31638;SDS011;18248;51.522;7.020;2023-04-03T10:23:45;5.47;;;1.60;;
31638;SDS011;18248;51.522;7.020;2023-04-03T10:36:55;4.50;;;0.90;;
31638;SDS011;18248;51.522;7.020;2023-04-03T10:43:28;3.85;;;1.38;;
31638;SDS011;18248;51.522;7.020;2023-04-03T10:46:34;4.13;;;1.60;;
31638;SDS011;18248;51.522;7.020;2023-04-03T10:49:51;7.40;;;1.33;;
31638;SDS011;18248;51.522;7.020;2023-04-03T10:56:39;4.45;;;1.42;;
31638;SDS011;18248;51.522;7.020;2023-04-03T10:59:41;4.18;;;1.48;;
31638;SDS011;18248;51.522;7.020;2023-04-03T11:02:51;8.68;;;1.55;;
31638;SDS011;18248;51.522;7.020;2023-04-03T11:05:56;3.30;;;1.30;;
31638;SDS011;18248;51.522;7.020;2023-04-03T11:08:59;3.72;;;1.10;;
31638;SDS011;18248;51.522;7.020;2023-04-03T11:12:12;4.45;;;1.25;;
31638;SDS011;18248;51.522;7.020;2023-04-03T11:15:30;3.50;;;1.40;;
31638;SDS011;18248;51.522;7.020;2023-04-03T11:18:39;3.83;;;1.30;;
31638;SDS011;18248;51.522;7.020;2023-04-03T11:22:10;9.70;;;2.25;;
31638;SDS011;18248;51.522;7.020;2023-04-03T11:25:17;5.90;;;1.60;;
31638;SDS011;18248;51.522;7.020;2023-04-03T11:28:22;9.70;;;1.52;;
31638;SDS011;18248;51.522;7.020;2023-04-03T11:34:45;4.28;;;1.20;;
31638;SDS011;18248;51.522;7.020;2023-04-03T11:37:51;3.25;;;1.20;;
31638;SDS011;18248;51.522;7.020;2023-04-03T11:40:51;3.50;;;1.40;;
31638;SDS011;18248;51.522;7.020;2023-04-03T11:43:59;7.57;;;1.58;;
31638;SDS011;18248;51.522;7.020;2023-04-03T11:47:02;10.55;;;1.20;;
31638;SDS011;18248;51.522;7.020;2023-04-03T11:50:06;7.00;;;1.15;;
31638;SDS011;18248;51.522;7.020;2023-04-03T11:59:22;3.53;;;1.10;;
31638;SDS011;18248;51.522;7.020;2023-04-03T12:02:35;6.28;;;1.20;;
31638;SDS011;18248;51.522;7.020;2023-04-03T12:05:35;5.80;;;0.95;;
31638;SDS011;18248;51.522;7.020;2023-04-03T12:11:40;6.20;;;1.20;;
31638;SDS011;18248;51.522;7.020;2023-04-03T12:14:38;5.90;;;1.30;;
31638;SDS011;18248;51.522;7.020;2023-04-03T12:17:39;8.90;;;1.10;;
31638;SDS011;18248;51.522;7.020;2023-04-03T12:20:57;2.60;;;0.95;;
31638;SDS011;18248;51.522;7.020;2023-04-03T12:24:03;4.00;;;1.23;;
31638;SDS011;18248;51.522;7.020;2023-04-03T12:27:25;3.72;;;1.27;;
31638;SDS011;18248;51.522;7.020;2023-04-03T12:30:40;7.15;;;1.02;;
31638;SDS011;18248;51.522;7.020;2023-04-03T12:37:03;3.33;;;1.00;;
31638;SDS011;18248;51.522;7.020;2023-04-03T12:46:43;3.63;;;1.20;;
31638;SDS011;18248;51.522;7.020;2023-04-03T12:49:44;3.28;;;1.30;;
31638;SDS011;18248;51.522;7.020;2023-04-03T12:52:47;2.95;;;1.23;;
31638;SDS011;18248;51.522;7.020;2023-04-03T12:55:55;3.67;;;1.58;;
31638;SDS011;18248;51.522;7.020;2023-04-03T12:59:18;3.38;;;1.23;;
31638;SDS011;18248;51.522;7.020;2023-04-03T13:05:31;4.85;;;1.40;;
31638;SDS011;18248;51.522;7.020;2023-04-03T13:08:31;6.15;;;1.42;;
31638;SDS011;18248;51.522;7.020;2023-04-03T13:11:31;2.70;;;1.13;;
31638;SDS011;18248;51.522;7.020;2023-04-03T13:14:34;5.50;;;1.42;;
31638;SDS011;18248;51.522;7.020;2023-04-03T13:17:32;5.43;;;1.67;;
31638;SDS011;18248;51.522;7.020;2023-04-03T13:20:37;2.20;;;1.10;;
31638;SDS011;18248;51.522;7.020;2023-04-03T13:23:36;5.03;;;1.55;;
31638;SDS011;18248;51.522;7.020;2023-04-03T13:26:38;3.58;;;1.02;;
31638;SDS011;18248;51.522;7.020;2023-04-03T13:29:38;4.03;;;1.10;;
31638;SDS011;18248;51.522;7.020;2023-04-03T13:32:37;7.68;;;1.65;;
31638;SDS011;18248;51.522;7.020;2023-04-03T13:35:37;4.15;;;1.27;;
31638;SDS011;18248;51.522;7.020;2023-04-03T13:38:40;6.20;;;1.53;;
31638;SDS011;18248;51.522;7.020;2023-04-03T13:41:40;5.75;;;1.45;;
31638;SDS011;18248;51.522;7.020;2023-04-03T13:44:40;3.70;;;1.10;;
31638;SDS011;18248;51.522;7.020;2023-04-03T13:47:40;7.20;;;1.50;;
31638;SDS011;18248;51.522;7.020;2023-04-03T13:50:57;4.70;;;1.42;;
31638;SDS011;18248;51.522;7.020;2023-04-03T13:53:58;6.15;;;1.50;;
31638;SDS011;18248;51.522;7.020;2023-04-03T13:56:59;6.97;;;1.40;;
31638;SDS011;18248;51.522;7.020;2023-04-03T14:00:18;7.80;;;1.58;;
31638;SDS011;18248;51.522;7.020;2023-04-03T14:03:30;5.75;;;1.42;;
31638;SDS011;18248;51.522;7.020;2023-04-03T14:06:29;3.63;;;1.00;;
31638;SDS011;18248;51.522;7.020;2023-04-03T14:09:27;2.53;;;1.08;;
31638;SDS011;18248;51.522;7.020;2023-04-03T14:12:31;3.67;;;0.90;;
31638;SDS011;18248;51.522;7.020;2023-04-03T14:15:32;6.47;;;1.27;;
31638;SDS011;18248;51.522;7.020;2023-04-03T14:18:31;5.22;;;1.52;;
31638;SDS011;18248;51.522;7.020;2023-04-03T14:21:29;5.85;;;1.27;;
31638;SDS011;18248;51.522;7.020;2023-04-03T14:24:28;4.13;;;1.42;;
31638;SDS011;18248;51.522;7.020;2023-04-03T14:27:28;2.53;;;1.00;;
31638;SDS011;18248;51.522;7.020;2023-04-03T14:30:38;5.88;;;1.38;;
31638;SDS011;18248;51.522;7.020;2023-04-03T14:33:37;6.07;;;1.40;;
31638;SDS011;18248;51.522;7.020;2023-04-03T14:36:37;7.38;;;1.50;;
31638;SDS011;18248;51.522;7.020;2023-04-03T14:39:36;5.55;;;1.52;;
31638;SDS011;18248;51.522;7.020;2023-04-03T14:42:35;4.65;;;1.27;;
31638;SDS011;18248;51.522;7.020;2023-04-03T14:45:35;4.78;;;1.92;;
31638;SDS011;18248;51.522;7.020;2023-04-03T14:48:34;5.55;;;1.70;;
31638;SDS011;18248;51.522;7.020;2023-04-03T14:51:33;4.18;;;1.40;;
31638;SDS011;18248;51.522;7.020;2023-04-03T14:54:32;4.63;;;1.27;;
31638;SDS011;18248;51.522;7.020;2023-04-03T14:57:30;23.20;;;9.68;;
31638;SDS011;18248;51.522;7.020;2023-04-03T15:00:30;13.18;;;5.05;;
31638;SDS011;18248;51.522;7.020;2023-04-03T15:03:29;7.63;;;1.60;;
31638;SDS011;18248;51.522;7.020;2023-04-03T15:06:28;7.70;;;1.58;;
31638;SDS011;18248;51.522;7.020;2023-04-03T15:09:27;6.45;;;1.50;;
31638;SDS011;18248;51.522;7.020;2023-04-03T15:12:26;4.53;;;1.15;;
31638;SDS011;18248;51.522;7.020;2023-04-03T15:15:27;4.20;;;1.40;;
31638;SDS011;18248;51.522;7.020;2023-04-03T15:18:27;4.75;;;1.60;;
31638;SDS011;18248;51.522;7.020;2023-04-03T15:21:33;3.58;;;1.35;;
31638;SDS011;18248;51.522;7.020;2023-04-03T15:24:32;5.72;;;1.50;;
31638;SDS011;18248;51.522;7.020;2023-04-03T15:27:31;5.28;;;1.67;;
31638;SDS011;18248;51.522;7.020;2023-04-03T15:30:29;6.80;;;1.90;;
31638;SDS011;18248;51.522;7.020;2023-04-03T15:33:28;6.45;;;1.77;;
31638;SDS011;18248;51.522;7.020;2023-04-03T15:36:28;7.03;;;1.77;;
31638;SDS011;18248;51.522;7.020;2023-04-03T15:39:26;5.90;;;1.50;;
31638;SDS011;18248;51.522;7.020;2023-04-03T15:42:25;5.75;;;1.70;;
31638;SDS011;18248;51.522;7.020;2023-04-03T15:45:23;5.03;;;1.52;;
31638;SDS011;18248;51.522;7.020;2023-04-03T15:48:22;5.32;;;1.90;;
31638;SDS011;18248;51.522;7.020;2023-04-03T15:51:20;6.43;;;1.80;;
31638;SDS011;18248;51.522;7.020;2023-04-03T15:54:19;6.68;;;1.75;;
31638;SDS011;18248;51.522;7.020;2023-04-03T15:57:18;9.20;;;2.05;;
31638;SDS011;18248;51.522;7.020;2023-04-03T16:00:16;4.68;;;1.55;;
31638;SDS011;18248;51.522;7.020;2023-04-03T16:03:16;9.10;;;1.70;;
31638;SDS011;18248;51.522;7.020;2023-04-03T16:06:17;6.57;;;1.70;;
31638;SDS011;18248;51.522;7.020;2023-04-03T16:09:17;4.28;;;1.65;;
31638;SDS011;18248;51.522;7.020;2023-04-03T16:12:17;3.00;;;1.30;;
31638;SDS011;18248;51.522;7.020;2023-04-03T16:15:16;4.20;;;1.45;;
31638;SDS011;18248;51.522;7.020;2023-04-03T16:18:15;6.03;;;1.60;;
31638;SDS011;18248;51.522;7.020;2023-04-03T16:21:14;4.47;;;1.67;;
31638;SDS011;18248;51.522;7.020;2023-04-03T16:24:14;4.30;;;1.48;;
31638;SDS011;18248;51.522;7.020;2023-04-03T16:27:13;7.72;;;1.60;;
31638;SDS011;18248;51.522;7.020;2023-04-03T16:30:11;4.78;;;1.50;;
31638;SDS011;18248;51.522;7.020;2023-04-03T16:33:10;4.35;;;1.63;;
31638;SDS011;18248;51.522;7.020;2023-04-03T16:36:10;5.65;;;1.98;;
31638;SDS011;18248;51.522;7.020;2023-04-03T16:39:08;5.53;;;1.38;;
31638;SDS011;18248;51.522;7.020;2023-04-03T16:42:10;5.50;;;1.80;;
31638;SDS011;18248;51.522;7.020;2023-04-03T16:45:09;4.20;;;1.75;;
31638;SDS011;18248;51.522;7.020;2023-04-03T16:48:08;8.30;;;1.88;;
31638;SDS011;18248;51.522;7.020;2023-04-03T16:51:06;5.40;;;1.65;;
31638;SDS011;18248;51.522;7.020;2023-04-03T16:54:05;5.50;;;1.83;;
31638;SDS011;18248;51.522;7.020;2023-04-03T16:57:06;12.65;;;2.22;;
31638;SDS011;18248;51.522;7.020;2023-04-03T17:00:04;8.43;;;2.10;;
31638;SDS011;18248;51.522;7.020;2023-04-03T17:03:07;3.42;;;1.50;;
31638;SDS011;18248;51.522;7.020;2023-04-03T17:06:06;5.13;;;1.50;;
31638;SDS011;18248;51.522;7.020;2023-04-03T17:09:04;4.05;;;1.58;;
31638;SDS011;18248;51.522;7.020;2023-04-03T17:12:05;5.10;;;1.70;;
31638;SDS011;18248;51.522;7.020;2023-04-03T17:15:03;7.05;;;1.48;;
31638;SDS011;18248;51.522;7.020;2023-04-03T17:18:02;7.43;;;1.88;;
31638;SDS011;18248;51.522;7.020;2023-04-03T17:21:01;9.07;;;3.03;;
31638;SDS011;18248;51.522;7.020;2023-04-03T17:24:01;9.65;;;2.78;;
31638;SDS011;18248;51.522;7.020;2023-04-03T17:27:05;7.28;;;1.83;;
31638;SDS011;18248;51.522;7.020;2023-04-03T17:30:04;7.80;;;1.80;;
31638;SDS011;18248;51.522;7.020;2023-04-03T17:33:03;4.95;;;1.52;;
31638;SDS011;18248;51.522;7.020;2023-04-03T17:36:02;7.10;;;1.60;;
31638;SDS011;18248;51.522;7.020;2023-04-03T17:39:01;8.70;;;1.80;;
31638;SDS011;18248;51.522;7.020;2023-04-03T17:42:00;8.98;;;2.55;;
31638;SDS011;18248;51.522;7.020;2023-04-03T17:44:59;6.82;;;2.40;;
31638;SDS011;18248;51.522;7.020;2023-04-03T17:47:58;5.43;;;1.95;;
31638;SDS011;18248;51.522;7.020;2023-04-03T17:50:56;12.20;;;2.83;;
31638;SDS011;18248;51.522;7.020;2023-04-03T17:53:55;7.00;;;2.22;;
31638;SDS011;18248;51.522;7.020;2023-04-03T17:56:53;5.68;;;2.30;;
31638;SDS011;18248;51.522;7.020;2023-04-03T17:59:52;5.68;;;2.42;;
31638;SDS011;18248;51.522;7.020;2023-04-03T18:02:51;5.45;;;2.20;;
31638;SDS011;18248;51.522;7.020;2023-04-03T18:05:51;4.05;;;2.00;;
31638;SDS011;18248;51.522;7.020;2023-04-03T18:08:51;8.38;;;2.17;;
31638;SDS011;18248;51.522;7.020;2023-04-03T18:11:53;5.03;;;2.10;;
31638;SDS011;18248;51.522;7.020;2023-04-03T18:14:53;6.50;;;2.00;;
31638;SDS011;18248;51.522;7.020;2023-04-03T18:17:52;6.47;;;2.00;;
31638;SDS011;18248;51.522;7.020;2023-04-03T18:20:53;5.70;;;1.50;;
31638;SDS011;18248;51.522;7.020;2023-04-03T18:23:53;6.25;;;1.60;;
31638;SDS011;18248;51.522;7.020;2023-04-03T18:26:54;3.33;;;1.35;;
31638;SDS011;18248;51.522;7.020;2023-04-03T18:29:59;8.40;;;1.98;;
31638;SDS011;18248;51.522;7.020;2023-04-03T18:33:03;5.38;;;1.80;;
31638;SDS011;18248;51.522;7.020;2023-04-03T18:36:04;6.90;;;2.25;;
31638;SDS011;18248;51.522;7.020;2023-04-03T18:39:03;5.38;;;1.88;;
31638;SDS011;18248;51.522;7.020;2023-04-03T18:42:03;5.70;;;1.70;;
31638;SDS011;18248;51.522;7.020;2023-04-03T18:45:06;6.10;;;2.13;;
31638;SDS011;18248;51.522;7.020;2023-04-03T18:48:07;5.32;;;1.60;;
31638;SDS011;18248;51.522;7.020;2023-04-03T18:51:08;5.93;;;1.65;;
31638;SDS011;18248;51.522;7.020;2023-04-03T18:54:07;5.88;;;1.60;;
31638;SDS011;18248;51.522;7.020;2023-04-03T18:57:06;7.05;;;1.75;;
31638;SDS011;18248;51.522;7.020;2023-04-03T19:00:05;8.50;;;2.17;;
31638;SDS011;18248;51.522;7.020;2023-04-03T19:03:05;5.70;;;1.70;;
31638;SDS011;18248;51.522;7.020;2023-04-03T19:06:04;7.55;;;1.80;;
31638;SDS011;18248;51.522;7.020;2023-04-03T19:09:04;5.95;;;2.15;;